Menu
Cart 0

Aviator Ring

  • $ 17.99
  • Save $ 10


Professional and civilian pilots alike love this temperature conversion ring. ATIS weather is given in Celsius, this ring helps quickly convert it to the equivalent Fahrenheit.

  • Stainless Steel Spinner
  • Converts Celsius to Fahrenheit (-6C/21F to 40C/104F)
  • Quickly Convert Aviation Weather Temperatures
  • Show Off Your Aviation Enthusiasm - Elegant and Classy
  • Used by Both Professional Pilots and General Aviation Enthusiasts
KPHX 
2nm W 
110551Z 22004KT 10SM CLR 26/03 A2988 RMK AO2 SLP103 T02560028 10322 20256 51017

We Also Recommend